Time;durP1;ratioP1;P1;durP2;ratioP2;P2;SDS_P1;SDS_P2;PMS_P1;PMS_P2;Temp;Humidity;BMP_temperature;BMP_pressure;BME280_temperature;BME280_humidity;BME280_pressure;Samples;Min_cycle;Max_cycle;Signal;HPM_P1;HPM_P2
2023/09/23 00:01:39;;;;;;;0.35;0.32;;;13.40;99.90;;;;;;5011994;28;20493;-76
2023/09/23 00:04:06;;;;;;;0.55;0.55;;;13.30;99.90;;;;;;5012266;28;20130;-76
2023/09/23 00:06:31;;;;;;;0.43;0.40;;;13.20;99.90;;;;;;5012198;28;20037;-76
2023/09/23 00:08:57;;;;;;;0.85;0.85;;;13.20;99.90;;;;;;5012091;28;20026;-76
2023/09/23 00:11:23;;;;;;;0.73;0.73;;;13.20;99.90;;;;;;5012275;28;20478;-77
2023/09/23 00:13:49;;;;;;;5.00;0.47;;;13.30;99.90;;;;;;4997995;28;20492;-76
2023/09/23 00:16:15;;;;;;;0.20;0.20;;;13.40;99.90;;;;;;5012081;28;20045;-76
2023/09/23 00:18:43;;;;;;;0.10;0.10;;;13.30;99.90;;;;;;5011476;28;20420;-76
2023/09/23 00:21:10;;;;;;;2.85;0.17;;;13.30;99.90;;;;;;5000078;28;20025;-76
2023/09/23 00:23:35;;;;;;;2.97;1.67;;;13.30;99.90;;;;;;5008043;28;20029;-76
2023/09/23 00:26:02;;;;;;;11.70;0.22;;;13.20;99.90;;;;;;5011222;28;20450;-76
2023/09/23 00:28:30;;;;;;;0.20;0.20;;;13.20;99.90;;;;;;5012286;28;20407;-76
2023/09/23 00:31:10;;;;;;;0.60;0.60;;;13.20;99.90;;;;;;5011699;28;20025;-77
2023/09/23 00:33:37;;;;;;;0.45;0.45;;;13.10;99.90;;;;;;5006470;28;20126;-76
2023/09/23 00:36:05;;;;;;;0.85;0.50;;;13.10;99.90;;;;;;5010326;28;20014;-77
2023/09/23 00:38:32;;;;;;;8.00;2.42;;;13.20;99.90;;;;;;5011222;28;20061;-76
2023/09/23 00:40:58;;;;;;;0.10;0.10;;;13.20;99.90;;;;;;5004258;28;20022;-77
2023/09/23 00:43:24;;;;;;;2.65;0.85;;;13.20;99.90;;;;;;5037259;28;20031;-77
2023/09/23 00:45:54;;;;;;;0.20;0.20;;;13.20;99.90;;;;;;5007828;28;20043;-77
2023/09/23 00:48:21;;;;;;;1.48;1.33;;;13.10;99.90;;;;;;5004025;28;20041;-77
2023/09/23 00:50:50;;;;;;;0.30;0.30;;;13.10;99.90;;;;;;5010295;28;20470;-77
2023/09/23 00:53:16;;;;;;;0.60;0.43;;;13.10;99.90;;;;;;4987491;28;20034;-77
2023/09/23 00:55:52;;;;;;;0.68;0.68;;;13.10;99.90;;;;;;5011041;28;20034;-78
2023/09/23 00:58:21;;;;;;;0.43;0.38;;;13.10;99.90;;;;;;5011069;28;20099;-77
2023/09/23 01:00:49;;;;;;;0.10;0.10;;;13.20;99.90;;;;;;5003872;28;20031;-76
2023/09/23 01:03:19;;;;;;;0.20;0.20;;;13.10;99.90;;;;;;5003850;28;20109;-77
2023/09/23 01:05:46;;;;;;;0.15;0.15;;;13.20;99.90;;;;;;5011135;28;20478;-76
2023/09/23 01:08:28;;;;;;;0.20;0.20;;;13.10;99.90;;;;;;5010645;28;20030;-77
2023/09/23 01:10:54;;;;;;;0.10;0.10;;;13.00;99.90;;;;;;5004717;28;20038;-77
2023/09/23 01:13:23;;;;;;;0.10;0.10;;;13.00;99.90;;;;;;5010853;28;20038;-76
2023/09/23 01:15:51;;;;;;;1.13;1.05;;;13.10;99.90;;;;;;4993325;28;20038;-76
2023/09/23 01:18:17;;;;;;;0.28;0.28;;;13.00;99.90;;;;;;5008250;28;20064;-76
2023/09/23 01:20:48;;;;;;;0.10;0.10;;;13.00;99.90;;;;;;5010567;28;20062;-76
2023/09/23 01:23:13;;;;;;;0.75;0.60;;;13.00;99.90;;;;;;5010748;28;20022;-77
2023/09/23 01:25:39;;;;;;;5.55;1.48;;;12.90;99.90;;;;;;5009494;28;20030;-77
2023/09/23 01:28:11;;;;;;;0.10;0.10;;;13.00;99.90;;;;;;5010825;28;20026;-76
2023/09/23 01:30:38;;;;;;;0.20;0.20;;;12.90;99.90;;;;;;5009583;28;20034;-76
2023/09/23 01:33:07;;;;;;;0.63;0.28;;;12.90;99.90;;;;;;5009739;28;20026;-77
2023/09/23 01:35:34;;;;;;;0.20;0.20;;;13.00;99.90;;;;;;5010494;28;20082;-77
2023/09/23 01:38:02;;;;;;;1.45;0.82;;;13.00;99.90;;;;;;5010748;28;20034;-76
2023/09/23 01:40:31;;;;;;;0.95;0.28;;;13.00;99.90;;;;;;5010100;28;20030;-77
2023/09/23 01:42:57;;;;;;;8.77;0.63;;;12.90;99.90;;;;;;5010650;28;20474;-77
2023/09/23 01:45:26;;;;;;;3.50;0.40;;;13.00;99.90;;;;;;5009042;28;20030;-76
2023/09/23 01:47:55;;;;;;;1.15;0.38;;;12.90;99.90;;;;;;5009446;28;20037;-77
2023/09/23 01:50:22;;;;;;;0.80;0.32;;;12.90;99.90;;;;;;5009229;28;20034;-77
2023/09/23 01:52:47;;;;;;;0.10;0.10;;;13.00;99.90;;;;;;5008958;28;20049;-76
2023/09/23 01:55:16;;;;;;;0.10;0.10;;;13.00;99.90;;;;;;5010265;28;20065;-77
2023/09/23 01:57:43;;;;;;;0.43;0.30;;;13.00;99.90;;;;;;5009095;28;20029;-75
2023/09/23 02:00:11;;;;;;;0.10;0.10;;;12.90;99.90;;;;;;5009080;28;20501;-77
2023/09/23 02:02:40;;;;;;;0.10;0.10;;;13.00;99.90;;;;;;5010192;28;20026;-76
2023/09/23 02:05:06;;;;;;;0.28;0.28;;;13.10;99.90;;;;;;5010352;28;20330;-76
2023/09/23 02:07:32;;;;;;;0.25;0.25;;;13.10;99.90;;;;;;5009038;28;20026;-76
2023/09/23 02:09:58;;;;;;;0.10;0.10;;;13.00;99.90;;;;;;5008647;28;20036;-76
2023/09/23 02:12:24;;;;;;;1.17;0.40;;;13.10;99.90;;;;;;4992984;28;20630;-76
2023/09/23 02:14:53;;;;;;;0.10;0.10;;;12.90;99.90;;;;;;5008545;28;20492;-76
2023/09/23 02:17:19;;;;;;;1.67;1.10;;;12.80;99.90;;;;;;4993101;28;20022;-77
2023/09/23 02:19:50;;;;;;;0.65;0.65;;;12.80;99.90;;;;;;5008824;28;20029;-76
2023/09/23 02:22:19;;;;;;;7.88;1.13;;;12.90;99.90;;;;;;5008527;28;20034;-77
2023/09/23 02:24:44;;;;;;;0.65;0.52;;;12.90;99.90;;;;;;5016142;28;20041;-77
2023/09/23 02:27:10;;;;;;;0.20;0.20;;;12.90;99.90;;;;;;5016553;28;20482;-77
2023/09/23 02:29:36;;;;;;;0.57;0.57;;;12.90;99.90;;;;;;5015321;28;20108;-77
2023/09/23 02:32:02;;;;;;;0.25;0.25;;;12.90;99.90;;;;;;5015248;28;20117;-77
2023/09/23 02:34:28;;;;;;;6.68;1.60;;;12.80;99.90;;;;;;5016597;28;20045;-77
2023/09/23 02:36:54;;;;;;;0.30;0.30;;;12.80;99.90;;;;;;5015111;28;20037;-77
2023/09/23 02:39:20;;;;;;;0.20;0.20;;;12.80;99.90;;;;;;4998587;28;20030;-77
2023/09/23 02:41:50;;;;;;;0.50;0.50;;;12.80;99.90;;;;;;5014983;28;20026;-77
2023/09/23 02:44:24;;;;;;;0.15;0.15;;;12.80;99.90;;;;;;5015338;28;20198;-77
2023/09/23 02:46:52;;;;;;;0.30;0.30;;;12.80;99.90;;;;;;5014963;28;20037;-77
2023/09/23 02:49:19;;;;;;;0.17;0.17;;;12.90;99.90;;;;;;5016528;28;20024;-77
2023/09/23 02:51:45;;;;;;;0.10;0.10;;;12.90;99.90;;;;;;5015140;28;20030;-77
2023/09/23 02:54:17;;;;;;;0.15;0.15;;;12.80;99.90;;;;;;5015779;28;20034;-77
2023/09/23 02:56:47;;;;;;;0.20;0.20;;;12.70;99.90;;;;;;5016193;28;20022;-77
2023/09/23 02:59:15;;;;;;;1.95;1.85;;;12.70;99.90;;;;;;5015040;28;20022;-77
2023/09/23 03:01:48;;;;;;;1.00;0.75;;;12.70;99.90;;;;;;5014735;28;20496;-76
2023/09/23 03:04:19;;;;;;;0.10;0.10;;;12.80;99.90;;;;;;5018363;28;20025;-77
2023/09/23 03:06:59;;;;;;;0.17;0.17;;;12.70;99.90;;;;;;5014607;28;20497;-77
2023/09/23 03:09:26;;;;;;;0.15;0.15;;;12.60;99.90;;;;;;5015992;28;20054;-76
2023/09/23 03:11:56;;;;;;;0.28;0.28;;;12.60;99.90;;;;;;5015998;28;20078;-76
2023/09/23 03:14:25;;;;;;;0.10;0.10;;;12.60;99.90;;;;;;5016030;28;20371;-77
2023/09/23 03:16:53;;;;;;;0.00;0.00;;;12.80;99.90;;;;;;5015872;28;20026;-77
2023/09/23 03:19:25;;;;;;;0.45;0.45;;;12.80;99.90;;;;;;5015898;28;20049;-77
2023/09/23 03:21:54;;;;;;;0.28;0.28;;;12.80;99.90;;;;;;5014470;28;20026;-77
2023/09/23 03:24:20;;;;;;;0.43;0.43;;;12.60;99.90;;;;;;5014426;28;20494;-77
2023/09/23 03:26:46;;;;;;;1.40;1.30;;;12.70;99.90;;;;;;4998103;28;20498;-76
2023/09/23 03:29:18;;;;;;;0.10;0.10;;;12.70;99.90;;;;;;4998394;28;20038;-77
2023/09/23 03:31:44;;;;;;;1.15;0.35;;;12.60;99.90;;;;;;5014533;28;20030;-76
2023/09/23 03:34:13;;;;;;;0.20;0.20;;;12.50;99.90;;;;;;5012726;28;20057;-77
2023/09/23 03:36:42;;;;;;;1.48;0.93;;;12.60;99.90;;;;;;5010902;28;20030;-76
2023/09/23 03:39:09;;;;;;;1.85;0.65;;;12.50;99.90;;;;;;5011090;28;20485;-77
2023/09/23 03:41:38;;;;;;;0.10;0.10;;;12.50;99.90;;;;;;5012288;28;20030;-76
2023/09/23 03:44:09;;;;;;;1.55;0.60;;;12.60;99.90;;;;;;5012483;28;20095;-77
2023/09/23 03:46:36;;;;;;;0.10;0.10;;;12.60;99.90;;;;;;5012313;28;20030;-76
2023/09/23 03:49:02;;;;;;;1.38;0.60;;;12.50;99.90;;;;;;5011038;28;20041;-77
2023/09/23 03:51:28;;;;;;;0.50;0.50;;;12.60;99.90;;;;;;5012043;28;20027;-77
2023/09/23 03:53:53;;;;;;;0.22;0.05;;;12.50;99.90;;;;;;5010750;28;20048;-77
2023/09/23 03:56:24;;;;;;;0.95;0.40;;;12.40;99.90;;;;;;5010969;28;20049;-77
2023/09/23 03:58:52;;;;;;;2.15;0.70;;;12.40;99.90;;;;;;5012053;28;20037;-77
2023/09/23 04:01:19;;;;;;;2.53;1.67;;;12.50;99.90;;;;;;4994120;28;20038;-76
2023/09/23 04:03:46;;;;;;;0.10;0.10;;;12.60;99.90;;;;;;5010838;28;20056;-77
2023/09/23 04:06:11;;;;;;;0.40;0.40;;;12.50;99.90;;;;;;5082352;28;20022;-76
2023/09/23 04:08:38;;;;;;;1.65;0.30;;;12.50;99.90;;;;;;5010789;28;20030;-76
2023/09/23 04:11:05;;;;;;;3.33;1.48;;;12.50;99.90;;;;;;5011784;28;20067;-76
2023/09/23 04:13:31;;;;;;;0.40;0.40;;;12.60;99.90;;;;;;5011898;28;20049;-76
2023/09/23 04:16:01;;;;;;;0.40;0.40;;;12.60;99.90;;;;;;5010495;28;20037;-77
2023/09/23 04:18:28;;;;;;;2.50;1.00;;;12.50;99.90;;;;;;5011651;28;20033;-76
2023/09/23 04:20:55;;;;;;;13.15;1.05;;;12.50;99.90;;;;;;5011709;28;20041;-76
2023/09/23 04:23:21;;;;;;;0.10;0.10;;;12.40;99.90;;;;;;5010694;28;20026;-77
2023/09/23 04:25:50;;;;;;;17.20;0.63;;;12.40;99.90;;;;;;5011737;28;20497;-77
2023/09/23 04:28:19;;;;;;;0.65;0.40;;;12.40;99.90;;;;;;5010225;28;20477;-76
2023/09/23 04:30:45;;;;;;;0.22;0.20;;;12.40;99.90;;;;;;5011952;28;20044;-76
2023/09/23 04:33:14;;;;;;;0.65;0.60;;;12.40;99.90;;;;;;5011573;28;20040;-76
2023/09/23 04:35:40;;;;;;;3.83;0.65;;;12.40;99.90;;;;;;5011326;28;20038;-76
2023/09/23 04:38:06;;;;;;;0.10;0.10;;;12.40;99.90;;;;;;5011655;28;20531;-76
2023/09/23 04:40:32;;;;;;;0.10;0.10;;;12.40;99.90;;;;;;5011481;28;20030;-76
2023/09/23 04:42:58;;;;;;;2.03;1.13;;;12.50;99.90;;;;;;5010410;28;20479;-77
2023/09/23 04:45:24;;;;;;;0.17;0.17;;;12.40;99.90;;;;;;5010941;28;20101;-76
2023/09/23 04:47:52;;;;;;;0.20;0.20;;;12.40;99.90;;;;;;5011063;28;20390;-76
2023/09/23 04:50:22;;;;;;;1.33;0.43;;;12.40;99.90;;;;;;5011487;28;20030;-77
2023/09/23 04:52:50;;;;;;;1.13;1.02;;;12.30;99.90;;;;;;5010247;28;20033;-76
2023/09/23 04:55:16;;;;;;;0.10;0.10;;;12.40;99.90;;;;;;5011256;28;20095;-75
2023/09/23 04:57:42;;;;;;;0.85;0.60;;;12.40;99.90;;;;;;5011496;28;20428;-77
2023/09/23 05:00:15;;;;;;;0.85;0.57;;;12.40;99.90;;;;;;5011219;28;20038;-77
2023/09/23 05:02:41;;;;;;;0.32;0.32;;;12.30;99.90;;;;;;5005727;28;20087;-76
2023/09/23 05:05:09;;;;;;;0.70;0.57;;;12.30;99.90;;;;;;5001301;28;20034;-77
2023/09/23 05:07:37;;;;;;;0.45;0.45;;;12.40;99.90;;;;;;5010575;28;20113;-77
2023/09/23 05:10:05;;;;;;;0.90;0.55;;;12.30;99.90;;;;;;5010690;28;20030;-77
2023/09/23 05:12:30;;;;;;;3.78;0.50;;;12.50;99.90;;;;;;4997722;28;20536;-77
2023/09/23 05:14:57;;;;;;;0.10;0.10;;;12.30;99.90;;;;;;5011102;28;20057;-77
2023/09/23 05:17:26;;;;;;;0.10;0.10;;;12.30;99.90;;;;;;5010832;28;20033;-76
2023/09/23 05:19:52;;;;;;;1.02;0.50;;;12.40;99.90;;;;;;5010901;28;20355;-77
2023/09/23 05:22:18;;;;;;;0.20;0.20;;;12.40;99.90;;;;;;5010810;28;20014;-77
2023/09/23 05:24:48;;;;;;;0.32;0.30;;;12.50;99.90;;;;;;5010439;28;20030;-77
2023/09/23 05:27:14;;;;;;;3.20;1.00;;;12.40;99.90;;;;;;5010616;28;20032;-77
2023/09/23 05:29:42;;;;;;;0.40;0.40;;;12.40;99.90;;;;;;5010897;28;20447;-76
2023/09/23 05:32:11;;;;;;;0.30;0.30;;;12.40;99.90;;;;;;5010317;28;20022;-76
2023/09/23 05:34:39;;;;;;;0.30;0.30;;;12.40;99.90;;;;;;5010713;28;20044;-76
2023/09/23 05:37:06;;;;;;;0.65;0.60;;;12.50;99.90;;;;;;5010458;28;20033;-76
2023/09/23 05:39:34;;;;;;;4.05;1.42;;;12.50;99.90;;;;;;5010468;28;20044;-77
2023/09/23 05:42:02;;;;;;;1.48;0.93;;;12.40;99.90;;;;;;5011021;28;20071;-77
2023/09/23 05:44:27;;;;;;;0.47;0.47;;;12.40;99.90;;;;;;5010689;28;20034;-77
2023/09/23 05:46:53;;;;;;;0.32;0.22;;;12.30;99.90;;;;;;5009220;28;20033;-76
2023/09/23 05:49:19;;;;;;;0.15;0.15;;;12.40;99.90;;;;;;5008858;28;20393;-78
2023/09/23 05:51:45;;;;;;;1.20;0.80;;;12.50;99.90;;;;;;5027085;28;20390;-78
2023/09/23 05:54:11;;;;;;;1.10;0.60;;;12.50;99.90;;;;;;5055493;28;20045;-77
2023/09/23 05:56:38;;;;;;;1.35;0.55;;;12.40;99.90;;;;;;5049981;28;20018;-77
2023/09/23 05:59:05;;;;;;;2.60;1.45;;;12.40;99.90;;;;;;5030053;28;20045;-77
2023/09/23 06:01:33;;;;;;;6.20;0.55;;;12.30;99.90;;;;;;5026266;28;20022;-77
2023/09/23 06:03:58;;;;;;;1.75;0.52;;;12.30;99.90;;;;;;5014200;28;20053;-78
2023/09/23 06:06:24;;;;;;;0.52;0.52;;;12.40;99.90;;;;;;5052034;28;20118;-77
2023/09/23 06:08:50;;;;;;;0.32;0.32;;;12.50;99.90;;;;;;5055535;28;20409;-77
2023/09/23 06:11:17;;;;;;;7.30;3.53;;;12.60;99.90;;;;;;5014210;28;20113;-78
2023/09/23 06:13:43;;;;;;;0.57;0.50;;;12.60;99.90;;;;;;5022680;28;20034;-77
2023/09/23 06:16:09;;;;;;;0.10;0.10;;;12.60;99.90;;;;;;5009534;28;20384;-77
2023/09/23 06:18:35;;;;;;;1.00;0.50;;;12.90;99.90;;;;;;5052964;28;20029;-77
2023/09/23 06:21:02;;;;;;;0.10;0.10;;;12.90;99.90;;;;;;5029785;28;20027;-77
2023/09/23 06:23:28;;;;;;;0.13;0.13;;;12.90;99.90;;;;;;5009402;28;20022;-78
2023/09/23 06:25:58;;;;;;;0.88;0.68;;;12.80;99.90;;;;;;5009103;28;20030;-78
2023/09/23 06:28:24;;;;;;;0.45;0.45;;;12.90;99.90;;;;;;5076925;28;20525;-77
2023/09/23 06:30:50;;;;;;;0.30;0.30;;;12.80;99.90;;;;;;5080207;28;20035;-78
2023/09/23 06:33:16;;;;;;;0.35;0.35;;;13.00;99.90;;;;;;5063956;28;20073;-78
2023/09/23 06:35:42;;;;;;;0.93;0.70;;;13.00;99.90;;;;;;5018123;28;20038;-77
2023/09/23 06:38:08;;;;;;;0.65;0.63;;;13.10;99.90;;;;;;5012828;28;20018;-77
2023/09/23 06:40:34;;;;;;;3.75;0.88;;;13.10;99.90;;;;;;5071731;28;20033;-77
2023/09/23 06:42:59;;;;;;;2.40;0.95;;;13.10;99.90;;;;;;5072878;28;20012;-77
2023/09/23 06:45:25;;;;;;;0.47;0.32;;;13.00;99.90;;;;;;5043627;28;20486;-77
2023/09/23 06:47:51;;;;;;;17.25;2.20;;;13.00;99.90;;;;;;5020913;28;20487;-77
2023/09/23 06:50:17;;;;;;;0.10;0.10;;;13.00;99.90;;;;;;5021768;28;20120;-77
2023/09/23 06:52:43;;;;;;;0.20;0.20;;;13.10;99.90;;;;;;5053877;28;20150;-77
2023/09/23 06:55:09;;;;;;;0.85;0.80;;;13.20;99.90;;;;;;5043435;28;20032;-77
2023/09/23 06:57:35;;;;;;;2.20;1.05;;;13.20;99.90;;;;;;5033781;28;20101;-77
2023/09/23 07:00:03;;;;;;;7.47;1.38;;;13.20;99.90;;;;;;5016738;28;20466;-77
2023/09/23 07:02:29;;;;;;;0.65;0.55;;;13.10;99.90;;;;;;5023906;28;20034;-79
2023/09/23 07:04:55;;;;;;;0.10;0.10;;;13.20;99.90;;;;;;5028532;28;20038;-78
2023/09/23 07:07:21;;;;;;;0.45;0.25;;;13.50;99.90;;;;;;5061659;28;20024;-78
2023/09/23 07:09:47;;;;;;;0.60;0.60;;;13.70;99.90;;;;;;5029269;28;20486;-77
2023/09/23 07:12:13;;;;;;;0.98;0.70;;;13.50;99.90;;;;;;5016324;28;20108;-78
2023/09/23 07:14:42;;;;;;;0.75;0.75;;;13.50;99.90;;;;;;5030682;28;20110;-80
2023/09/23 07:17:08;;;;;;;0.63;0.55;;;13.50;99.90;;;;;;5081755;27;20072;-79
2023/09/23 07:19:34;;;;;;;0.52;0.28;;;13.50;99.90;;;;;;5034508;28;20034;-78
2023/09/23 07:22:01;;;;;;;0.15;0.15;;;13.50;99.90;;;;;;5025374;28;20026;-80
2023/09/23 07:24:27;;;;;;;0.55;0.50;;;13.60;99.90;;;;;;5012401;28;20442;-80
2023/09/23 07:26:57;;;;;;;0.30;0.30;;;13.60;99.90;;;;;;5029216;28;20496;-80
2023/09/23 07:29:24;;;;;;;0.10;0.10;;;13.70;99.90;;;;;;5097668;28;20035;-78
2023/09/23 07:31:51;;;;;;;0.20;0.20;;;13.90;99.90;;;;;;5065410;28;20030;-78
2023/09/23 07:34:16;;;;;;;2.20;1.75;;;13.90;99.90;;;;;;5036180;28;20038;-78
2023/09/23 07:36:43;;;;;;;3.35;0.68;;;13.90;99.90;;;;;;5032522;28;20034;-78
2023/09/23 07:39:10;;;;;;;1.13;0.63;;;14.00;99.90;;;;;;5041076;28;20020;-78
2023/09/23 07:41:37;;;;;;;0.43;0.40;;;13.90;99.90;;;;;;5064205;28;20028;-80
2023/09/23 07:44:03;;;;;;;3.55;3.25;;;14.00;99.90;;;;;;5051160;28;20079;-80
2023/09/23 07:46:29;;;;;;;2.15;0.45;;;14.10;99.90;;;;;;5038368;28;20039;-80
2023/09/23 07:48:56;;;;;;;1.63;0.90;;;14.20;99.90;;;;;;5033839;28;20026;-79
2023/09/23 07:51:22;;;;;;;0.03;0.03;;;14.10;99.90;;;;;;5050297;28;20027;-80
2023/09/23 07:53:47;;;;;;;0.10;0.10;;;14.20;99.90;;;;;;5077887;28;20028;-80
2023/09/23 07:56:13;;;;;;;0.08;0.08;;;14.60;99.90;;;;;;5045703;28;20026;-85
2023/09/23 07:58:39;;;;;;;0.00;0.00;;;14.60;99.90;;;;;;5041226;28;20026;-83
2023/09/23 08:01:05;;;;;;;0.10;0.10;;;14.50;99.90;;;;;;5042932;28;20028;-83
2023/09/23 08:03:31;;;;;;;0.10;0.10;;;14.60;99.90;;;;;;5012900;28;20689;-81
2023/09/23 08:05:56;;;;;;;0.05;0.05;;;14.40;99.90;;;;;;5053544;28;20022;-80
2023/09/23 08:08:22;;;;;;;0.50;0.50;;;14.50;99.90;;;;;;5041628;28;20491;-81
2023/09/23 08:10:49;;;;;;;0.10;0.10;;;14.50;99.90;;;;;;5032987;28;20114;-80
2023/09/23 08:13:19;;;;;;;2.30;0.63;;;14.60;99.90;;;;;;5021089;28;20087;-82
2023/09/23 08:15:46;;;;;;;5.00;1.35;;;14.50;99.90;;;;;;5062950;28;20383;-82
2023/09/23 08:18:12;;;;;;;0.05;0.05;;;14.50;99.90;;;;;;5045962;28;20026;-80
2023/09/23 08:20:39;;;;;;;1.85;1.50;;;14.70;99.90;;;;;;5031180;28;20037;-82
2023/09/23 08:23:05;;;;;;;24.15;0.90;;;14.60;99.90;;;;;;5015287;28;20061;-78
2023/09/23 08:25:32;;;;;;;1.92;0.88;;;14.60;99.90;;;;;;5018114;28;20045;-79
2023/09/23 08:27:58;;;;;;;0.10;0.10;;;14.60;99.90;;;;;;5075255;28;20479;-81
2023/09/23 08:30:25;;;;;;;1.85;1.23;;;14.90;99.90;;;;;;5059747;28;20049;-81
2023/09/23 08:32:50;;;;;;;0.88;0.63;;;15.10;99.90;;;;;;5040615;28;20043;-80
2023/09/23 08:35:16;;;;;;;0.90;0.50;;;14.80;99.90;;;;;;5026184;28;20034;-81
2023/09/23 08:37:45;;;;;;;3.78;0.32;;;14.80;99.90;;;;;;5014668;28;20542;-79
2023/09/23 08:40:19;;;;;;;1.27;0.80;;;15.10;99.90;;;;;;5054320;28;20025;-80
2023/09/23 08:42:50;;;;;;;6.03;1.75;;;15.00;99.90;;;;;;5054046;28;20033;-82
2023/09/23 08:45:17;;;;;;;0.90;0.63;;;15.10;99.90;;;;;;5017680;28;20065;-82
2023/09/23 08:47:45;;;;;;;0.93;0.30;;;15.40;99.90;;;;;;5022341;28;20026;-84
2023/09/23 08:50:12;;;;;;;0.40;0.10;;;15.50;99.90;;;;;;5022136;28;20048;-82
2023/09/23 08:52:38;;;;;;;0.03;0.03;;;15.50;99.90;;;;;;5021692;28;20053;-81
2023/09/23 08:55:06;;;;;;;0.63;0.50;;;15.60;99.90;;;;;;5074767;28;20128;-90
2023/09/23 08:57:33;;;;;;;1.00;0.63;;;15.60;99.90;;;;;;5037037;28;20026;-80
2023/09/23 08:59:59;;;;;;;0.10;0.10;;;15.20;99.90;;;;;;5009413;28;20109;-79
2023/09/23 09:02:25;;;;;;;0.40;0.40;;;15.20;99.90;;;;;;5001764;28;20823;-79
2023/09/23 09:04:57;;;;;;;4.90;1.75;;;15.60;99.90;;;;;;5082282;28;20226;-80
2023/09/23 09:07:24;;;;;;;;;;;15.40;99.90;;;;;;5061141;28;20036;-79
2023/09/23 09:09:50;;;;;;;0.28;0.28;;;15.60;99.90;;;;;;5027192;28;19963;-79
2023/09/23 09:12:16;;;;;;;3.20;0.20;;;15.60;99.90;;;;;;5015139;28;20061;-80
2023/09/23 09:14:47;;;;;;;6.93;1.75;;;15.90;99.90;;;;;;5028048;28;20410;-80
2023/09/23 09:17:15;;;;;;;1.33;1.17;;;15.80;99.90;;;;;;5079543;28;20011;-80
2023/09/23 09:19:40;;;;;;;0.43;0.43;;;15.60;99.90;;;;;;5027553;28;20467;-79
2023/09/23 09:22:07;;;;;;;2.40;1.35;;;15.40;99.90;;;;;;5023429;28;20106;-80
2023/09/23 09:24:33;;;;;;;0.00;0.00;;;15.20;99.90;;;;;;5013412;28;20053;-79
2023/09/23 09:26:59;;;;;;;0.52;0.47;;;15.20;99.90;;;;;;5032795;28;20032;-80
2023/09/23 09:29:25;;;;;;;0.68;0.68;;;15.70;99.90;;;;;;5095609;28;20030;-79
2023/09/23 09:31:54;;;;;;;0.32;0.30;;;15.60;99.90;;;;;;5065594;28;20029;-80
2023/09/23 09:34:24;;;;;;;2.05;0.57;;;15.80;99.90;;;;;;5039677;28;20094;-80
2023/09/23 09:36:56;;;;;;;3.20;0.32;;;16.00;99.90;;;;;;5030537;28;20072;-80
2023/09/23 09:39:28;;;;;;;0.73;0.47;;;15.90;99.90;;;;;;5047344;28;20491;-80
2023/09/23 09:41:56;;;;;;;1.65;0.60;;;15.60;99.90;;;;;;5080965;28;20217;-80
2023/09/23 09:44:27;;;;;;;0.15;0.15;;;15.50;99.90;;;;;;5047550;28;20026;-80
2023/09/23 09:46:55;;;;;;;1.38;0.93;;;15.50;99.90;;;;;;5017947;28;20084;-79
2023/09/23 09:49:24;;;;;;;0.43;0.43;;;15.60;99.90;;;;;;5007351;28;20033;-79
2023/09/23 09:51:51;;;;;;;2.55;1.08;;;15.60;99.90;;;;;;5009365;28;20026;-81
2023/09/23 09:54:20;;;;;;;0.50;0.43;;;15.50;99.90;;;;;;5009953;28;20042;-80
2023/09/23 09:56:52;;;;;;;3.47;0.75;;;15.50;99.90;;;;;;5010445;28;20071;-79
2023/09/23 09:59:30;;;;;;;0.38;0.38;;;15.70;99.90;;;;;;5009193;28;20041;-80
2023/09/23 10:01:59;;;;;;;1.00;0.57;;;16.00;99.90;;;;;;5010305;28;20029;-80
2023/09/23 10:04:32;;;;;;;0.20;0.20;;;15.80;99.90;;;;;;5010354;28;20398;-80
2023/09/23 10:06:58;;;;;;;2.10;1.13;;;15.80;99.90;;;;;;5009884;28;20037;-79
2023/09/23 10:09:31;;;;;;;0.20;0.20;;;15.70;99.90;;;;;;5009956;28;20037;-77
2023/09/23 10:11:59;;;;;;;0.00;0.00;;;16.00;99.90;;;;;;5010782;28;20400;-76
2023/09/23 10:14:26;;;;;;;0.65;0.65;;;15.70;99.90;;;;;;5009955;28;20052;-75
2023/09/23 10:17:05;;;;;;;0.70;0.70;;;15.50;99.90;;;;;;5010501;28;20026;-78
2023/09/23 10:19:31;;;;;;;0.47;0.35;;;15.40;99.90;;;;;;5010063;28;20105;-78
2023/09/23 10:22:17;;;;;;;0.35;0.35;;;15.60;99.90;;;;;;5010043;28;20363;-79
2023/09/23 10:24:43;;;;;;;0.00;0.00;;;15.80;99.90;;;;;;5009925;28;20034;-78
2023/09/23 10:27:10;;;;;;;0.00;0.00;;;15.80;99.90;;;;;;5010872;28;20074;-79
2023/09/23 10:29:49;;;;;;;0.30;0.30;;;15.90;99.90;;;;;;5009927;28;20104;-76
2023/09/23 10:32:17;;;;;;;0.90;0.57;;;16.10;99.90;;;;;;4995749;28;20026;-77
2023/09/23 10:34:47;;;;;;;2.45;1.98;;;16.20;99.90;;;;;;5009751;28;20041;-78
2023/09/23 10:37:22;;;;;;;2.60;0.90;;;16.30;99.90;;;;;;5009368;28;20374;-78
2023/09/23 10:39:48;;;;;;;0.98;0.65;;;16.60;99.90;;;;;;5009163;28;20153;-77
2023/09/23 10:42:14;;;;;;;0.10;0.10;;;16.50;99.90;;;;;;5056816;28;20040;-79
2023/09/23 10:44:40;;;;;;;0.73;0.22;;;17.00;99.90;;;;;;5029516;28;20110;-78
2023/09/23 10:47:06;;;;;;;0.47;0.45;;;17.40;99.90;;;;;;5018173;28;20518;-78
2023/09/23 10:49:32;;;;;;;0.20;0.20;;;17.90;99.90;;;;;;5038073;28;20406;-80
2023/09/23 10:51:57;;;;;;;0.17;0.17;;;17.80;99.90;;;;;;5067466;28;20084;-79
2023/09/23 10:54:27;;;;;;;0.15;0.13;;;17.60;99.90;;;;;;5038949;28;20091;-78
2023/09/23 10:56:53;;;;;;;22.23;0.90;;;18.10;99.90;;;;;;5026245;28;20042;-79
2023/09/23 10:59:19;;;;;;;0.10;0.10;;;18.20;99.90;;;;;;5029353;28;20151;-78
2023/09/23 11:01:45;;;;;;;1.13;0.65;;;18.90;99.90;;;;;;5091110;28;20019;-79
2023/09/23 11:04:11;;;;;;;0.57;0.35;;;18.70;99.90;;;;;;5059698;28;20082;-78
2023/09/23 11:06:38;;;;;;;0.35;0.35;;;18.50;99.90;;;;;;5034648;28;20026;-77
2023/09/23 11:09:07;;;;;;;1.75;1.05;;;18.50;99.90;;;;;;5027343;28;20034;-78
2023/09/23 11:11:36;;;;;;;1.75;0.82;;;18.50;99.90;;;;;;5031087;28;20039;-78
2023/09/23 11:14:11;;;;;;;2.38;0.65;;;18.90;99.90;;;;;;5083627;28;20036;-79
2023/09/23 11:16:37;;;;;;;0.28;0.28;;;18.80;99.90;;;;;;5036000;28;20041;-77
2023/09/23 11:19:07;;;;;;;5.07;0.65;;;18.00;99.90;;;;;;5035504;28;20026;-78
2023/09/23 11:21:44;;;;;;;0.13;0.13;;;18.20;99.90;;;;;;5036193;28;20376;-76
2023/09/23 11:24:10;;;;;;;0.47;0.40;;;18.70;99.90;;;;;;5090048;27;20026;-78
2023/09/23 11:26:40;;;;;;;2.72;0.55;;;19.10;99.90;;;;;;5072452;28;20016;-77
2023/09/23 11:29:09;;;;;;;2.42;0.80;;;19.70;99.90;;;;;;5066568;28;20124;-77
2023/09/23 11:31:35;;;;;;;14.45;1.13;;;19.30;99.90;;;;;;5058897;28;20076;-77
2023/09/23 11:34:01;;;;;;;0.38;0.38;;;18.70;99.90;;;;;;5021010;28;20125;-77
2023/09/23 11:36:28;;;;;;;1.45;0.57;;;19.50;99.90;;;;;;5076611;28;20023;-79
2023/09/23 11:38:54;;;;;;;5.72;1.55;;;20.30;99.90;;;;;;5071287;28;20022;-79
2023/09/23 11:41:19;;;;;;;1.65;0.20;;;19.80;99.90;;;;;;5071237;28;20491;-78
2023/09/23 11:43:49;;;;;;;0.00;0.00;;;19.90;99.90;;;;;;5042790;28;20549;-79
2023/09/23 11:46:19;;;;;;;1.20;0.75;;;19.50;99.90;;;;;;5016563;28;20360;-77
2023/09/23 11:48:48;;;;;;;0.00;0.00;;;18.60;99.90;;;;;;5024600;28;20042;-77
2023/09/23 11:51:18;;;;;;;2.83;1.17;;;18.40;99.90;;;;;;5024761;28;20025;-78
2023/09/23 11:53:44;;;;;;;0.00;0.00;;;18.30;99.90;;;;;;5058672;28;20388;-78
2023/09/23 11:56:11;;;;;;;7.88;0.30;;;18.40;99.90;;;;;;5022782;28;20105;-77
2023/09/23 11:58:37;;;;;;;0.00;0.00;;;18.50;99.90;;;;;;4998277;28;20030;-78
2023/09/23 12:01:03;;;;;;;0.00;0.00;;;18.10;99.90;;;;;;5016115;28;20398;-84
2023/09/23 12:03:28;;;;;;;0.10;0.10;;;18.10;99.90;;;;;;5072978;28;20054;-79
2023/09/23 12:05:54;;;;;;;0.00;0.00;;;18.30;99.90;;;;;;5036196;28;20460;-77
2023/09/23 12:08:20;;;;;;;0.93;0.75;;;18.80;99.90;;;;;;5002835;28;20026;-78
2023/09/23 12:10:46;;;;;;;0.00;0.00;;;19.10;99.90;;;;;;5034309;28;20462;-77
2023/09/23 12:13:13;;;;;;;0.00;0.00;;;20.20;99.90;;;;;;5070366;28;20390;-77
2023/09/23 12:15:40;;;;;;;0.00;0.00;;;20.80;99.90;;;;;;5010819;28;20034;-77
2023/09/23 12:18:06;;;;;;;0.73;0.20;;;20.60;99.90;;;;;;4980403;28;20017;-77
2023/09/23 12:20:32;;;;;;;0.10;0.10;;;21.20;99.90;;;;;;5013234;28;20030;-77
2023/09/23 12:23:00;;;;;;;0.25;0.25;;;21.30;99.90;;;;;;5065314;28;20018;-75
2023/09/23 12:25:26;;;;;;;1.08;0.22;;;22.10;99.90;;;;;;5061135;28;20040;-76
2023/09/23 12:27:52;;;;;;;0.45;0.40;;;20.50;99.90;;;;;;5089115;28;20065;-76
2023/09/23 12:30:18;;;;;;;2.83;0.22;;;19.30;99.90;;;;;;5052904;28;20030;-77
2023/09/23 12:32:44;;;;;;;2.10;0.22;;;18.80;99.90;;;;;;5033105;28;20023;-77
2023/09/23 12:35:11;;;;;;;0.10;0.10;;;18.20;99.90;;;;;;5030319;28;20042;-78
2023/09/23 12:37:37;;;;;;;0.00;0.00;;;18.30;99.90;;;;;;5097724;28;20027;-77
2023/09/23 12:40:07;;;;;;;2.08;0.22;;;18.00;99.90;;;;;;5080934;28;20030;-78
2023/09/23 12:42:33;;;;;;;0.10;0.10;;;18.80;99.90;;;;;;5041749;28;20113;-77
2023/09/23 12:44:59;;;;;;;0.10;0.10;;;19.30;99.90;;;;;;5031026;28;20026;-77
2023/09/23 12:47:25;;;;;;;3.30;0.40;;;19.60;99.90;;;;;;5032202;28;20125;-77
2023/09/23 12:49:51;;;;;;;0.00;0.00;;;18.50;99.90;;;;;;5093708;28;20024;-77